Data for 04/03/2017

Time Sea-Level Adjusted Pressure Absolute Pressure Temperature Relative Humidity Dew Point   
(mb) (inHg) (mb) (inHg) (C) (F) (%) (C) (F)
00:05 1016 30 845 24.95 1.7 35.1 47 -8.5 16.7
00:10 1016 30 845 24.95 1.7 35.1 47 -8.4 16.8
00:15 1016 30 845 24.95 1.7 35 47 -8.5 16.7
00:20 1016 30 846 24.98 1.6 34.9 47 -8.5 16.8
00:25 1016 30 846 24.98 1.5 34.8 46 -8.8 16.2
00:30 1016 30 846 24.98 1.5 34.7 44 -9.4 15.1
00:35 1016 30 846 24.98 1.4 34.5 42 -10 14
00:40 1016 30 846 24.98 1.3 34.4 43 -10 14.1
00:45 1017 30.03 846 24.98 1.3 34.3 43 -9.9 14.1
00:50 1016 30 846 24.98 1.2 34.1 44 -9.9 14.2
00:55 1017 30.03 846 24.98 1.2 34.1 44 -9.9 14.2
01:00 1016 30 846 24.98 1.1 34 44 -9.9 14.1
01:05 1016 30 846 24.98 1 33.7 45 -9.7 14.6
01:10 1017 30.03 846 24.98 0.8 33.5 46 -9.5 14.9
01:15 1017 30.03 846 24.98 0.6 33.1 48 -9.2 15.4
01:20 1017 30.03 846 24.98 0.5 32.8 50 -8.9 16
01:25 1017 30.03 846 24.98 0.3 32.5 51 -8.8 16.2
01:30 1017 30.03 846 24.98 0.1 32.1 52 -8.6 16.6
01:35 1017 30.03 846 24.98 -0.2 31.6 54 -8.5 16.8
01:40 1016 30 846 24.98 -0.3 31.4 54 -8.7 16.4
01:45 1016 30 846 24.98 -0.3 31.4 52 -9 15.9
01:50 1016 30 846 24.98 -0.3 31.5 52 -9 15.8
01:55 1016 30 846 24.98 -0.3 31.4 51 -9.2 15.5
02:00 1016 30 845 24.95 -0.3 31.5 50 -9.4 15.1
02:05 1016 30 845 24.95 -0.3 31.4 51 -9.2 15.4
02:10 1016 30 845 24.95 -0.4 31.3 52 -9.1 15.7
02:15 1016 30 846 24.98 -0.5 31.2 53 -8.9 16
02:20 1016 30 845 24.95 -0.5 31.1 55 -8.6 16.6
02:25 1016 30 846 24.98 -0.7 30.8 56 -8.4 17
02:30 1016 30 846 24.98 -0.8 30.6 57 -8.1 17.3
02:35 1016 30 846 24.98 -0.9 30.3 59 -7.9 17.8
02:40 1016 30 846 24.98 -1.1 30.1 60 -7.9 17.8
02:45 1016 30 846 24.98 -1.2 29.8 62 -7.7 18.2
02:50 1016 30 846 24.98 -1.4 29.6 62 -7.8 18
02:55 1016 30 846 24.98 -1.5 29.4 61 -8 17.7
03:00 1016 30 845 24.95 -1.5 29.3 58 -8.7 16.4
03:05 1016 30 845 24.95 -1.4 29.4 57 -8.9 16
03:10 1016 30 845 24.95 -1.5 29.3 55 -9.4 15.1
03:15 1016 30 845 24.95 -1.6 29.2 54 -9.7 14.5
03:20 1016 30 845 24.95 -1.7 29 53 -10 14.1
03:25 1016 30 845 24.95 -1.7 29 52 -10.2 13.7
03:30 1016 30 845 24.95 -1.7 28.9 51 -10.4 13.2
03:35 1016 30 845 24.95 -1.7 29 52 -10.3 13.5
03:40 1016 30 845 24.95 -1.7 29 53 -10.2 13.7
03:45 1016 30 845 24.95 -1.7 29 52 -10.4 13.3
03:50 1016 30 845 24.95 -1.6 29.1 50 -10.6 12.8
03:55 1016 30 845 24.95 -1.5 29.4 50 -10.6 12.9
04:00 1016 30 845 24.95 -1.4 29.4 50 -10.4 13.2
04:05 1016 30 845 24.95 -1.5 29.3 51 -10.4 13.3
04:10 1016 30 845 24.95 -1.5 29.3 51 -10.4 13.3
04:15 1016 30 845 24.95 -1.5 29.2 51 -10.3 13.4
04:20 1016 30 845 24.95 -1.5 29.3 51 -10.5 13.1
04:25 1016 30 845 24.95 -1.5 29.2 51 -10.4 13.3
04:30 1016 30 845 24.95 -1.6 29.2 51 -10.4 13.3
04:35 1016 30 845 24.95 -1.5 29.2 51 -10.5 13.2
04:40 1016 30 845 24.95 -1.6 29.2 51 -10.5 13.1
04:45 1016 30 845 24.95 -1.6 29.2 51 -10.5 13.2
04:50 1016 30 845 24.95 -1.6 29.1 52 -10.2 13.6
04:55 1016 30 845 24.95 -1.8 28.8 54 -10 14.1
05:00 1016 30 845 24.95 -2 28.4 54 -10.1 13.9
05:05 1016 30 845 24.95 -2 28.3 56 -9.8 14.4
05:10 1016 30 845 24.95 -2 28.3 56 -9.8 14.4
05:15 1016 30 845 24.95 -2.1 28.2 57 -9.6 14.8
05:20 1016 30 845 24.95 -2.2 28 57 -9.5 14.8
05:25 1016 30 845 24.95 -2.2 28.1 56 -9.7 14.5
05:30 1016 30 845 24.95 -2.1 28.2 56 -9.7 14.5
05:35 1016 30 845 24.95 -2.1 28.3 58 -9.3 15.3
05:40 1016 30 845 24.95 -2 28.3 56 -9.6 14.7
05:45 1015 29.97 845 24.95 -1.9 28.6 56 -9.5 14.9
05:50 1015 29.97 845 24.95 -1.9 28.7 56 -9.6 14.8
05:55 1015 29.97 845 24.95 -1.8 28.7 56 -9.5 14.9
06:00 1015 29.97 845 24.95 -1.8 28.7 57 -9.2 15.5
06:05 1015 29.97 845 24.95 -1.8 28.7 57 -9.3 15.3
06:10 1015 29.97 845 24.95 -1.8 28.8 57 -9.3 15.3
06:15 1015 29.97 845 24.95 -1.7 29 57 -9.1 15.7
06:20 1015 29.97 845 24.95 -1.7 29 57 -9.2 15.5
06:25 1015 29.97 845 24.95 -1.7 29 58 -8.8 16.1
06:30 1015 29.97 845 24.95 -1.8 28.8 55 -9.7 14.6
06:35 1015 29.97 845 24.95 -1.7 28.9 59 -8.8 16.1
06:40 1016 30 845 24.95 -1.9 28.6 59 -8.8 16.2
06:45 1016 30 845 24.95 -2.1 28.2 60 -9 15.9
06:50 1016 30 845 24.95 -2.2 28 61 -8.7 16.4
06:55 1016 30 845 24.95 -2.4 27.7 62 -8.6 16.5
07:00 1016 30 845 24.95 -2.6 27.4 62 -8.9 16
07:05 1016 30 845 24.95 -2.6 27.3 62 -9 15.8
07:10 1016 30 845 24.95 -2.5 27.5 60 -9.1 15.6
07:15 1016 30 845 24.95 -2.3 27.8 61 -8.9 15.9
07:20 1016 30 845 24.95 -2.1 28.2 60 -9 15.9
07:25 1016 30 845 24.95 -1.9 28.7 57 -9.3 15.2
07:30 1016 30 845 24.95 -1.8 28.8 55 -9.7 14.6
07:35 1016 30 845 24.95 -1.7 29 54 -9.8 14.4
07:40 1016 30 845 24.95 -1.4 29.5 55 -9.4 15.1
07:45 1016 30 845 24.95 -1.4 29.5 56 -9.1 15.7
07:50 1016 30 845 24.95 -1.4 29.5 60 -8.2 17.2
07:55 1016 30 845 24.95 -1.5 29.3 60 -8.2 17.2
08:00 1016 30 845 24.95 -1.6 29.2 60 -8.3 17
08:05 1016 30 845 24.95 -1.6 29.2 58 -8.8 16.1
08:10 1016 30 845 24.95 -1.6 29.1 58 -8.9 16.1
08:15 1016 30 845 24.95 -1.4 29.4 57 -8.8 16.2
08:20 1016 30 845 24.95 -1.3 29.7 56 -9 15.8
08:25 1016 30 845 24.95 -1.1 30.1 54 -9.2 15.4
08:30 1016 30 845 24.95 -0.7 30.7 50 -10 13.9
08:35 1016 30 845 24.95 -0.6 30.9 50 -9.7 14.5
08:40 1016 30 845 24.95 -0.5 31.1 49 -10 14
08:45 1016 30 845 24.95 -0.4 31.2 49 -9.8 14.4
08:50 1016 30 845 24.95 -0.3 31.4 49 -9.7 14.5
08:55 1016 30 845 24.95 -0.2 31.6 48 -9.9 14.2
09:00 1016 30 845 24.95 -0.1 31.9 49 -9.6 14.7
09:05 1016 30 845 24.95 -0.1 31.8 47 -10.1 13.7
09:10 1016 30 845 24.95 -0.3 31.4 48 -10 14
09:15 1016 30 845 24.95 -0.3 31.5 46 -10.5 13.2
09:20 1016 30 845 24.95 0.1 32.1 45 -10.4 13.3
09:25 1016 30 845 24.95 0.3 32.5 45 -10.4 13.2
09:30 1016 30 845 24.95 0.5 32.9 45 -10.3 13.5
09:35 1016 30 845 24.95 0.4 32.8 44 -10.4 13.4
09:40 1016 30 845 24.95 0.4 32.6 44 -10.7 12.8
09:45 1016 30 845 24.95 0.5 32.9 43 -10.7 12.8
09:50 1016 30 845 24.95 0.9 33.6 42 -10.7 12.7
09:55 1016 30 845 24.95 1.2 34.2 41 -10.5 13
10:00 1016 30 845 24.95 1.5 34.8 41 -10.4 13.3
10:05 1016 30 845 24.95 1.5 34.8 41 -10.4 13.3
10:10 1016 30 845 24.95 1.4 34.5 41 -10.6 13
10:15 1016 30 845 24.95 1.4 34.4 40 -10.8 12.6
10:20 1016 30 845 24.95 1.4 34.6 41 -10.5 13.1
10:25 1016 30 845 24.95 1.6 35 40 -10.6 12.9
10:30 1016 30 845 24.95 2.2 35.9 38 -10.6 12.9
10:35 1016 30 845 24.95 2.4 36.3 38 -10.6 13
10:40 1016 30 845 24.95 2.5 36.6 36 -11 12.3
10:45 1016 30 845 24.95 2.5 36.6 37 -10.9 12.4
10:50 1016 30 845 24.95 2.8 37 34 -11.5 11.4
10:55 1016 30 845 24.95 2.5 36.5 37 -10.8 12.5
11:00 1016 30 845 24.95 2.6 36.7 36 -10.9 12.4
11:05 1016 30 845 24.95 2.4 36.3 35 -11.5 11.3
11:10 1016 30 845 24.95 2.9 37.2 35 -11 12.1
11:15 1016 30 845 24.95 3.1 37.6 33 -11.6 11.1
11:20 1016 30 845 24.95 3.1 37.6 34 -11.4 11.5
11:25 1016 30 845 24.95 3.6 38.5 32 -11.4 11.4
11:30 1016 30 845 24.95 3.8 38.9 33 -11 12.3
11:35 1016 30 845 24.95 3.5 38.3 35 -10.8 12.6
11:40 1016 30 845 24.95 3 37.5 35 -11.2 11.9
11:45 1016 30 845 24.95 2.8 37 34 -11.5 11.3
11:50 1016 30 845 24.95 2.6 36.6 35 -11.6 11.1
11:55 1016 30 845 24.95 3 37.4 33 -11.6 11.1
12:00 1016 30 845 24.95 3 37.4 33 -11.7 11
12:05 1016 30 845 24.95 3.2 37.8 32 -12.1 10.2
12:10 1016 30 845 24.95 3.9 39.1 33 -11 12.1
12:15 1016 30 845 24.95 3.5 38.3 32 -11.8 10.8
12:20 1016 30 845 24.95 3.7 38.6 32 -11.7 11
12:25 1016 30 845 24.95 3.6 38.5 32 -11.6 11.1
12:30 1016 30 845 24.95 3.4 38.2 31 -12 10.4
12:35 1016 30 845 24.95 3.6 38.4 31 -11.9 10.6
12:40 1016 30 845 24.95 3.2 37.8 30 -12.6 9.3
12:45 1016 30 845 24.95 4.2 39.6 30 -12 10.4
12:50 1016 30 845 24.95 4 39.3 33 -10.7 12.7
12:55 1016 30 845 24.95 2.8 37 35 -11.4 11.5
13:00 1015 29.97 845 24.95 2.6 36.8 33 -12.3 9.9
13:05 1015 29.97 845 24.95 3.4 38.2 31 -12.1 10.2
13:10 1015 29.97 845 24.95 4.2 39.6 30 -11.9 10.5
13:15 1015 29.97 845 24.95 4.3 39.7 31 -11.4 11.5
13:20 1015 29.97 844 24.92 4.3 39.7 30 -12 10.4
13:25 1015 29.97 844 24.92 4.5 40.2 28 -12.4 9.7
13:30 1015 29.97 844 24.92 4.3 39.7 29 -12.2 10.1
13:35 1015 29.97 844 24.92 3.7 38.6 30 -12.5 9.5
13:40 1015 29.97 844 24.92 3.6 38.5 30 -12.4 9.6
13:45 1015 29.97 844 24.92 3 37.3 32 -12.2 10.1
13:50 1015 29.97 844 24.92 4.1 39.3 27 -13.4 7.9
13:55 1015 29.97 844 24.92 4.1 39.4 26 -13.7 7.3
14:00 1015 29.97 844 24.92 5 41.1 25 -13.5 7.8
14:05 1015 29.97 844 24.92 4.2 39.6 33 -10.6 13
14:10 1015 29.97 844 24.92 4.1 39.3 41 -8.1 17.4
14:15 1015 29.97 844 24.92 3.3 37.9 38 -9.7 14.5
14:20 1015 29.97 844 24.92 3.1 37.6 35 -10.9 12.5
14:25 1015 29.97 844 24.92 3.6 38.5 36 -10.3 13.5
14:30 1015 29.97 844 24.92 4.1 39.4 38 -9 15.8
14:35 1015 29.97 844 24.92 3.8 38.8 36 -10.1 13.8
14:40 1015 29.97 844 24.92 3.7 38.6 34 -10.8 12.5
14:45 1015 29.97 844 24.92 4.5 40 32 -10.7 12.7
14:50 1015 29.97 844 24.92 4.6 40.2 32 -10.6 12.9
14:55 1015 29.97 844 24.92 4.7 40.4 45 -6.1 21
15:00 1015 29.97 844 24.92 3.3 38 52 -5.5 22
15:05 1015 29.97 844 24.92 2.7 36.9 55 -5.5 22
15:10 1015 29.97 845 24.95 2.3 36.1 59 -4.9 23.2
15:15 1015 29.97 845 24.95 2.2 35.9 58 -5.3 22.5
15:20 1015 29.97 845 24.95 2 35.6 63 -4.4 24.1
15:25 1016 30 845 24.95 1.5 34.8 63 -4.8 23.3
15:30 1016 30 845 24.95 1.9 35.4 61 -5 23.1
15:35 1016 30 845 24.95 1.5 34.7 61 -5.2 22.6
15:40 1016 30 845 24.95 1.3 34.4 61 -5.5 22.2
15:45 1016 30 845 24.95 1.3 34.3 60 -5.6 21.9
15:50 1016 30 845 24.95 0.3 32.6 70 -4.5 23.8
15:55 1016 30 845 24.95 0.1 32.2 72 -4.4 24.1
16:00 1016 30 845 24.95 0.1 32.2 65 -5.6 21.9
16:05 1016 30 845 24.95 0.8 33.4 63 -5.4 22.2
16:10 1016 30 845 24.95 1.3 34.3 60 -5.7 21.7
16:15 1016 30 845 24.95 0.9 33.7 65 -5 23
16:20 1016 30 845 24.95 0.7 33.3 63 -5.5 22.1
16:25 1016 30 845 24.95 1.2 34.2 60 -5.7 21.8
16:30 1016 30 845 24.95 0.9 33.5 63 -5.3 22.4
16:35 1016 30 845 24.95 0.2 32.4 68 -5 23.1
16:40 1015 29.97 845 24.95 -0.2 31.6 70 -5 23
16:45 1015 29.97 845 24.95 -0.3 31.5 65 -6.1 21.1
16:50 1015 29.97 845 24.95 -0 32 63 -6.2 20.9
16:55 1015 29.97 845 24.95 0.3 32.5 62 -6.2 20.8
17:00 1016 30 845 24.95 0.6 33.1 60 -6.2 20.8
17:05 1016 30 845 24.95 0.5 32.9 60 -6.5 20.3
17:10 1016 30 845 24.95 0.5 32.9 62 -5.9 21.4
17:15 1016 30 845 24.95 0.3 32.5 61 -6.5 20.4
17:20 1016 30 845 24.95 0.6 33.1 59 -6.4 20.4
17:25 1016 30 845 24.95 0.5 32.9 60 -6.5 20.3
17:30 1016 30 845 24.95 0.8 33.5 57 -6.8 19.8
17:35 1016 30 845 24.95 1 33.9 55 -7 19.4
17:40 1016 30 845 24.95 1.1 34.1 52 -7.6 18.4
17:45 1016 30 845 24.95 1.5 34.8 53 -7.2 19.1
17:50 1016 30 845 24.95 1.6 34.9 52 -7.3 18.9
17:55 1016 30 845 24.95 1.3 34.3 54 -7 19.4
18:00 1016 30 845 24.95 1.3 34.3 53 -7.2 19
18:05 1016 30 845 24.95 1.1 33.9 55 -7 19.3
18:10 1016 30 845 24.95 1.5 34.7 53 -6.9 19.5
18:15 1016 30 845 24.95 1.3 34.4 55 -6.9 19.6
18:20 1016 30 845 24.95 1.5 34.7 54 -6.8 19.8
18:25 1016 30 845 24.95 1.7 35.1 53 -6.8 19.8
18:30 1016 30 845 24.95 1.5 34.7 55 -6.7 20
18:35 1016 30 845 24.95 1.3 34.4 55 -6.7 19.9
18:40 1016 30 845 24.95 1.3 34.3 56 -6.5 20.2
18:45 1016 30 845 24.95 1.3 34.4 55 -6.6 20.1
18:50 1016 30 845 24.95 1.4 34.5 55 -6.6 20.1
18:55 1016 30 845 24.95 1.4 34.6 55 -6.6 20.1
19:00 1016 30 845 24.95 1.4 34.5 56 -6.5 20.4
19:05 1016 30 845 24.95 1.3 34.4 57 -6.4 20.5
19:10 1016 30 845 24.95 1.3 34.3 57 -6.3 20.7
19:15 1016 30 845 24.95 1.3 34.4 55 -6.8 19.7
19:20 1016 30 845 24.95 1.2 34.2 59 -5.9 21.4
19:25 1016 30 845 24.95 0.8 33.5 65 -5 23.1
19:30 1016 30 845 24.95 0.2 32.3 66 -5.5 22.1
19:35 1016 30 845 24.95 -0.1 31.7 66 -5.7 21.7
19:40 1016 30 845 24.95 -0.2 31.6 66 -5.8 21.5
19:45 1016 30 845 24.95 -0.2 31.7 65 -6 21.2
19:50 1016 30 845 24.95 -0.2 31.6 65 -6 21.2
19:55 1016 30 845 24.95 -0.2 31.6 65 -6.1 21
20:00 1016 30 845 24.95 -0.2 31.7 64 -6.2 20.9
20:05 1016 30 846 24.98 -0 31.9 64 -6 21.1
20:10 1016 30 846 24.98 0 32 64 -6.1 21
20:15 1016 30 846 24.98 0.1 32.1 63 -6.2 20.9
20:20 1017 30.03 846 24.98 -0 32 64 -6.1 21.1
20:25 1017 30.03 846 24.98 -0.3 31.4 66 -5.9 21.3
20:30 1017 30.03 846 24.98 -0.8 30.6 68 -6 21.2
20:35 1017 30.03 846 24.98 -0.8 30.6 68 -6 21.1
20:40 1017 30.03 846 24.98 -0.9 30.4 68 -6 21.2
20:45 1017 30.03 846 24.98 -1.1 30.1 69 -6 21.1
20:50 1017 30.03 846 24.98 -1.1 30 69 -6.1 21
20:55 1017 30.03 846 24.98 -1 30.2 69 -6 21.1
21:00 1017 30.03 846 24.98 -0.8 30.5 70 -5.6 22
21:05 1017 30.03 846 24.98 -0.8 30.5 71 -5.5 22.1
21:10 1017 30.03 846 24.98 -0.8 30.5 71 -5.4 22.3
21:15 1017 30.03 846 24.98 -0.8 30.6 71 -5.4 22.2
21:20 1017 30.03 846 24.98 -0.8 30.6 71 -5.3 22.4
21:25 1017 30.03 846 24.98 -0.8 30.6 73 -5 23
21:30 1017 30.03 846 24.98 -0.9 30.4 73 -5.1 22.9
21:35 1017 30.03 846 24.98 -1 30.2 75 -4.8 23.4
21:40 1017 30.03 846 24.98 -1.4 29.6 77 -4.9 23.2
21:45 1017 30.03 847 25.01 -1.4 29.5 76 -5.1 22.9
21:50 1017 30.03 847 25.01 -1.2 29.9 75 -5.1 22.8
21:55 1017 30.03 847 25.01 -1.1 29.9 74 -5.2 22.7
22:00 1018 30.06 847 25.01 -1 30.3 73 -5.2 22.6
22:05 1018 30.06 847 25.01 -0.8 30.5 73 -5.2 22.7
22:10 1018 30.06 847 25.01 -0.8 30.5 72 -5.3 22.4
22:15 1018 30.06 847 25.01 -0.8 30.5 71 -5.5 22.2
22:20 1018 30.06 847 25.01 -0.8 30.5 70 -5.5 22
22:25 1018 30.06 847 25.01 -0.9 30.4 70 -5.7 21.8
22:30 1018 30.06 847 25.01 -0.9 30.4 69 -5.8 21.6
22:35 1018 30.06 847 25.01 -0.9 30.4 69 -5.8 21.6
22:40 1018 30.06 847 25.01 -1 30.3 69 -5.9 21.4
22:45 1018 30.06 847 25.01 -1 30.1 69 -6 21.2
22:50 1018 30.06 847 25.01 -1 30.1 69 -6 21.2
22:55 1018 30.06 847 25.01 -1.1 30.1 69 -6 21.3
23:00 1018 30.06 847 25.01 -1.1 30.1 71 -5.7 21.8
23:05 1018 30.06 847 25.01 -1.1 29.9 73 -5.5 22.2
23:10 1018 30.06 847 25.01 -1.2 29.8 74 -5.3 22.5
23:15 1018 30.06 847 25.01 -1.3 29.7 74 -5.3 22.4
23:20 1018 30.06 847 25.01 -1.2 29.8 74 -5.4 22.3
23:25 1018 30.06 847 25.01 -1.3 29.7 73 -5.5 22.1
23:30 1018 30.06 847 25.01 -1.3 29.7 73 -5.6 22
23:35 1018 30.06 847 25.01 -1.4 29.5 73 -5.6 21.9
23:40 1018 30.06 847 25.01 -1.5 29.4 73 -5.7 21.7
23:45 1018 30.06 847 25.01 -1.5 29.4 73 -5.8 21.6
23:50 1018 30.06 847 25.01 -1.5 29.3 73 -5.8 21.6
23:55 1018 30.06 847 25.01 -1.7 29 73 -5.8 21.5
24:00 1018 30.06 847 25.01 -1.7 29 73 -5.9 21.3